• Join FlightAware (Why Join?)
  • Login
  • US Flag 
11:54AM EDT


 

Airport Tracker/Info


-or-


 

Live Flight TrackerFlight Track Log ✈ AVN11 ✈ 16-Oct-2013 ✈ YSSY / SYD - NVVV / VLI

Flight Track Log - Related Links

Times and Time Zones

All times are in EDT time to prevent confusion due to time zone crossing. See the AVN11 flight status page for this flight to view local times or setup timezone preferences in your user account.

Time Position Orientation Groundspeed Altitude Reporting Facility
EDT Latitude Longitude Course Direction KTS MPH feet Rate Location/Type
05:25AM -33.9648 151.1923 347° North 100 115  Level FlightAware ADS-B (YRAY)
05:25AM -33.9508 151.1886 348° North 164 189 200 1,560 Climbing FlightAware ADS-B (YRAY)
05:25AM -33.9364 151.1870 355° North 149 171 1,100 2,460 Climbing FlightAware ADS-B (YRAY)
05:25AM -33.9300 151.1914 30° Northeast 169 194 1,400 1,800 Climbing FlightAware ADS-B (YRAY)
05:26AM -33.9259 151.2000 60° Northeast 181 208 1,700 1,680 Climbing FlightAware ADS-B (YRAY)
05:26AM -33.9255 151.2103 88° East 191 220 2,000 1,800 Climbing FlightAware ADS-B (YRAY)
05:26AM -33.9286 151.2206 110° East 201 231 2,300 1,380 Climbing FlightAware ADS-B (YRAY)
05:26AM -33.9366 151.2423 114° Southeast 220 253 2,700 1,380 Climbing FlightAware ADS-B (YRAY)
05:27AM -33.9378 151.2544 97° East 222 255 3,000 1,800 Climbing FlightAware ADS-B (YRAY)
05:27AM -33.9374 151.2808 89° East 243 280 3,600 1,560 Climbing FlightAware ADS-B (YRAY)
05:27AM -33.9369 151.2947 87° East 256 295 3,800 1,200 Climbing FlightAware ADS-B (YRAY)
05:27AM -33.9356 151.3342 88° East 271 312 4,300 1,140 Climbing FlightAware ADS-B (YRAY)
05:28AM -33.9345 151.3710 88° East 313 360 4,700 1,380 Climbing FlightAware ADS-B
05:28AM -33.9335 151.4035 88° East 344 396 5,200 1,980 Climbing FlightAware ADS-B
05:29AM -33.9154 151.4632 88° East 343 395 6,400 2,820 Climbing Aus ATC (RADAR)
05:29AM -33.9130 151.4702 88° East 351 404 6,900 3,000 Climbing FlightAware ADS-B
05:29AM -33.8982 151.5109 66° East 355 409 7,700 2,640 Climbing FlightAware ADS-B
05:30AM -33.8804 151.5631 68° East 361 415 9,200 2,940 Climbing FlightAware ADS-B
05:30AM -33.8775 151.6167 86° East 376 433 10,400 2,520 Climbing FlightAware ADS-B
05:31AM -33.8865 151.7413 95° East 386 444 12,800 2,340 Climbing FlightAware ADS-B
05:32AM -33.8909 151.8128 94° East 390 449 14,000 2,340 Climbing FlightAware ADS-B
05:32AM -33.8950 151.8830 94° East 398 458 15,400 2,520 Climbing FlightAware
05:33AM -33.9000 151.9590 95° East 406 467 16,900 2,460 Climbing FlightAware
05:33AM -33.9042 152.0335 94° East 418 481 18,100 2,040 Climbing FlightAware ADS-B
05:34AM -33.9070 152.1150 92° East 432 497 19,300 1,980 Climbing FlightAware
05:35AM -33.9080 152.2230 91° East 441 507 20,900 2,220 Climbing FlightAware
05:35AM -33.9080 152.3170 90° East 448 516 22,300 2,040 Climbing FlightAware
05:36AM -33.9090 152.3890 91° East 454 522 23,200 1,740 Climbing FlightAware
05:36AM -33.9090 152.4780 90° East 459 528 24,300 1,800 Climbing FlightAware
05:37AM -33.9100 152.5840 91° East 465 535 25,500 1,860 Climbing FlightAware
05:38AM -33.9030 152.7000 86° East 465 535 26,900 1,740 Climbing FlightAware
05:38AM -33.8840 152.7460 64° Northeast 466 536 27,400 1,140 Climbing FlightAware
05:39AM -33.8420 152.8170 55° Northeast 474 545 28,000 1,020 Climbing FlightAware
05:39AM -33.7949 152.8964 55° Northeast 470 541 28,600 960 Climbing Aus ATC (RADAR)
05:39AM -33.7920 152.9000 55° Northeast 484 557 28,600 840 Level FlightAware
05:40AM -33.7440 152.9800 54° Northeast 494 568 29,200 1,380 Climbing FlightAware
05:40AM -33.6870 153.0740 54° Northeast 492 566 30,400 1,380 Climbing FlightAware
05:41AM -33.6460 153.1410 54° Northeast 497 572 30,900 900 Climbing FlightAware
05:41AM -33.6409 153.1512 54° Northeast 485 558 30,900 1,560 Level Aus ATC (RADAR)
05:42AM -33.6020 153.2140 54° Northeast 494 568 31,800 1,440 Climbing FlightAware
05:42AM -33.5500 153.3000 54° Northeast 494 568 32,600 1,020 Climbing FlightAware
05:43AM -33.4990 153.3840 54° Northeast 500 575 33,100 840 Climbing FlightAware
05:43AM -33.4500 153.4640 54° Northeast 504 580 33,700 1,020 Climbing FlightAware
05:44AM -33.4030 153.5410 54° Northeast 506 582 34,300 960 Climbing FlightAware
05:45AM -33.3570 153.6160 54° Northeast 505 581 34,900 600 Climbing FlightAware
05:45AM -33.3160 153.6830 54° Northeast 503 579 35,000 60 Climbing FlightAware
05:46AM -33.2560 153.7810 54° Northeast 500 575 35,000  Level FlightAware
05:46AM -33.2210 153.8380 54° Northeast 499 574 35,000  Level FlightAware
05:47AM -33.1670 153.9270 54° Northeast 498 573 35,000  Level FlightAware
05:47AM -33.1250 153.9930 53° Northeast 496 571 35,000  Level FlightAware
05:48AM -33.0710 154.0810 54° Northeast 494 568 35,000  Level FlightAware
05:49AM -33.0230 154.1580 53° Northeast 493 567 35,000  Level FlightAware
05:49AM -32.9730 154.2390 54° Northeast 491 565 35,000  Level FlightAware
05:50AM -32.9320 154.3030 53° Northeast 491 565 35,000 -120 Level FlightAware
05:50AM -32.8786 154.3896 53° Northeast 474 545 34,900  Descending Aus ATC (RADAR)
05:50AM -32.8810 154.3860 53° Northeast 490 564 35,000 120 Climbing FlightAware
05:51AM -32.8320 154.4600 52° Northeast 490 564 35,000  Level FlightAware
05:52AM -32.7490 154.5520 43° Northeast 493 567 35,000  Level FlightAware
05:52AM -32.6930 154.6130 43° Northeast 494 568 35,000  Level FlightAware
05:53AM -32.6270 154.6850 43° Northeast 494 568 35,000  Level FlightAware
05:54AM -32.5760 154.7410 43° Northeast 494 568 35,000  Level FlightAware
05:54AM -32.5220 154.7980 43° Northeast 494 568 35,000 1,200 Level FlightAware
05:54AM -32.4935 154.8308 43° Northeast 487 560 35,800  Climbing Aus ATC (RADAR)
05:55AM -32.4690 154.8550 42° Northeast 494 568 35,000 -720 Descending FlightAware
05:55AM -32.4150 154.9120 42° Northeast 494 568 35,000  Level FlightAware
05:56AM -32.3630 154.9670 42° Northeast 494 568 35,000  Level FlightAware
05:57AM -32.3100 155.0240 42° Northeast 494 568 35,000  Level FlightAware
05:57AM -32.2580 155.0790 42° Northeast 494 568 35,000  Level FlightAware
05:58AM -32.2060 155.1350 42° Northeast 494 568 35,000 1,740 Level FlightAware
05:58AM -32.0720 155.2860 42° Northeast 492 566 37,000 3,900 Climbing FlightAware
05:58AM -32.0652 155.2933 42° Northeast 479 551 37,100  Climbing Aus ATC (RADAR)
05:59AM -32.0160 155.3470 43° Northeast 491 565 37,000 -120 Descending FlightAware
06:00AM -31.9480 155.4190 42° Northeast 491 565 37,000  Level FlightAware
06:01AM -31.8630 155.5100 42° Northeast 494 568 37,000  Level FlightAware
06:01AM -31.8110 155.5650 42° Northeast 494 568 37,000  Level FlightAware
06:02AM -31.7590 155.6200 42° Northeast 494 568 37,000  Level FlightAware
06:02AM -31.7060 155.6760 42° Northeast 494 568 37,000  Level FlightAware
06:03AM -31.6540 155.7310 42° Northeast 494 568 37,000  Level FlightAware
06:04AM -31.6010 155.7880 42° Northeast 494 568 37,000  Level FlightAware
06:04AM -31.5490 155.8430 42° Northeast 494 568 37,000  Level FlightAware
06:05AM -31.4970 155.8980 42° Northeast 494 568 37,000 60 Level FlightAware
06:05AM -31.3694 156.0324 42° Northeast 468 539 37,100  Climbing Aus ATC (RADAR)
06:05AM -31.4450 155.9530 42° Northeast 494 568 37,000 -180 Descending FlightAware
06:06AM -31.3930 156.0070 42° Northeast 494 568 37,000  Level FlightAware
06:07AM -31.3390 156.0640 42° Northeast 494 568 37,000  Level FlightAware
06:07AM -31.2870 156.1190 42° Northeast 494 568 37,000  Level FlightAware
06:08AM -31.2350 156.1730 42° Northeast 494 568 37,000  Level FlightAware
06:08AM -31.1830 156.2280 42° Northeast 494 568 37,000  Level FlightAware
06:09AM -31.1310 156.2830 42° Northeast 494 568 37,000  Level FlightAware
06:10AM -31.0790 156.3370 42° Northeast 494 568 37,000 180 Level FlightAware
06:11AM -30.8331 156.5940 42° Northeast 483 556 37,300 180 Climbing Aus ATC (RADAR)
06:11AM -30.7995 156.6286 41° Northeast 483 556 37,300  Level Aus ATC (RADAR)
06:12AM -30.7413 156.6889 42° Northeast 483 556 37,300  Level Aus ATC (RADAR)
06:12AM -30.6744 156.7582 42° Northeast 483 556 37,300  Level Aus ATC (RADAR)
06:13AM -30.6160 156.8185 42° Northeast 483 556 37,300  Level Aus ATC (RADAR)
06:13AM -30.5658 156.8702 42° Northeast 482 555 37,300  Level Aus ATC (RADAR)
06:14AM -30.5073 156.9304 42° Northeast 483 556 37,300  Level Aus ATC (RADAR)
06:15AM -30.4484 156.9908 41° Northeast 484 557 37,300  Level Aus ATC (RADAR)
06:16AM -30.3077 157.1353 42° Northeast 477 549 37,300  Level Aus ATC (RADAR)
06:16AM -30.2577 157.1870 42° Northeast 478 550 37,300  Level Aus ATC (RADAR)
06:17AM -30.2062 157.2397 42° Northeast 484 557 37,300  Level Aus ATC (RADAR)
06:18AM -30.1201 157.3272 41° Northeast 489 563 37,300  Level Aus ATC (RADAR)
06:18AM -30.0672 157.3800 41° Northeast 493 567 37,300  Level Aus ATC (RADAR)
06:19AM -29.9647 157.4850 42° Northeast 491 565 37,300  Level Aus ATC (RADAR)
06:20AM -29.9387 157.5112 41° Northeast 493 567 37,300  Level Aus ATC (RADAR)
06:21AM -29.7929 157.6590 41° Northeast 493 567 37,300  Level Aus ATC (RADAR)
06:21AM -29.7493 157.7029 41° Northeast 495 570 37,300  Level Aus ATC (RADAR)
06:22AM -29.6879 157.7641 41° Northeast 496 571 37,300  Level Aus ATC (RADAR)
06:23AM -29.6086 157.8425 41° Northeast 499 574 37,300  Level Aus ATC (RADAR)
06:23AM -29.5384 157.9118 41° Northeast 498 573 37,300  Level Aus ATC (RADAR)
06:24AM -29.4597 157.9898 41° Northeast 497 572 37,300  Level Aus ATC (RADAR)
06:24AM -29.4338 158.0147 40° Northeast 497 572 37,300  Level Aus ATC (RADAR)
06:25AM -29.3240 158.1260 41° Northeast 497 572 37,300  Level Aus ATC (RADAR)
06:26AM -29.3154 158.1342 40° Northeast 497 572 37,300  Level Aus ATC (RADAR)
06:30AM -28.7858 158.6556 41° Northeast 37,000 -120 Descending Aus ATC (Calculated)
06:32AM -28.6753 158.7640 41° Northeast  Level Estimated
06:33AM -28.5805 158.8567 41° Northeast  Level Estimated
06:34AM -28.4857 158.9493 41° Northeast  Level Estimated
06:35AM -28.3908 159.0416 41° Northeast  Level Estimated
06:36AM -28.2958 159.1339 41° Northeast  Level Estimated
06:36AM -28.1878 159.2339 40° Northeast 37,000  Level Aus ATC (Calculated)
06:38AM -28.0642 159.3533 40° Northeast  Level Estimated
06:39AM -27.9690 159.4450 40° Northeast  Level Estimated
06:40AM -27.8738 159.5365 40° Northeast  Level Estimated
06:40AM -27.7950 159.5988 39° Northeast 37,000  Level Aus ATC (Calculated)
06:40AM -27.7355 159.6537 40° Northeast 37,000  Level Aus ATC (Calculated)
06:42AM -27.6381 159.7469 40° Northeast  Level Estimated
06:42AM -27.6185 159.7616 40° Northeast 37,000  Level Aus ATC (Calculated)
06:44AM -27.4331 159.9384 40° Northeast  Level Estimated
06:44AM -27.3346 160.0219 39° Northeast 37,000  Level Aus ATC (Calculated)
06:44AM -27.2822 160.0698 39° Northeast 37,000  Level Aus ATC (Calculated)
06:45AM -27.2307 160.1168 39° Northeast 37,000  Level Aus ATC (Calculated)
06:46AM -27.0782 160.2556 78° East 37,000  Level Aus ATC (Calculated)
06:47AM -27.0769 160.2624 40° Northeast  Level Estimated
06:48AM -26.9501 160.3766 40° Northeast  Level Estimated
06:48AM -26.8388 160.4725 40° Northeast 37,000  Level Aus ATC (Calculated)
06:50AM -26.7105 160.5931 40° Northeast  Level Estimated
06:50AM -26.6148 160.6743 86° East 37,000  Level Aus ATC (Calculated)
06:51AM -26.6142 160.6834 40° Northeast  Level Estimated
06:52AM -26.4864 160.7946 40° Northeast  Level Estimated
06:53AM -26.3900 160.8846 40° Northeast  Level Estimated
06:54AM -26.2936 160.9744 40° Northeast  Level Estimated
06:55AM -26.1971 161.0641 40° Northeast  Level Estimated
06:56AM -26.1005 161.1537 40° Northeast  Level Estimated
06:57AM -26.0039 161.2431 40° Northeast  Level Estimated
06:58AM -25.9073 161.3323 40° Northeast  Level Estimated
06:59AM -25.8106 161.4214 40° Northeast  Level Estimated
06:59AM -25.7446 161.4487 40° Northeast 37,000  Level Aus ATC (Calculated)
07:01AM -25.5529 161.6253 40° Northeast  Level Estimated
07:01AM -25.5212 161.6451 40° Northeast 37,000  Level Aus ATC (Calculated)
07:02AM -25.4245 161.7339 40° Northeast  Level Estimated
07:03AM -25.3278 161.8227 40° Northeast  Level Estimated
07:04AM -25.2310 161.9113 40° Northeast  Level Estimated
07:05AM -25.1342 161.9997 40° Northeast  Level Estimated
07:06AM -25.0373 162.0880 40° Northeast  Level Estimated
07:07AM -24.9404 162.1762 40° Northeast  Level Estimated
07:08AM -24.8434 162.2642 39° Northeast  Level Estimated
07:09AM -24.7464 162.3521 39° Northeast  Level Estimated
07:10AM -24.6493 162.4399 39° Northeast  Level Estimated
07:11AM -24.5522 162.5275 39° Northeast  Level Estimated
07:11AM -24.4915 162.5380 62° Northeast 37,000  Level Aus ATC (Calculated)
07:12AM -24.4550 162.6150 39° Northeast  Level Estimated
07:13AM -24.2976 162.7135 40° Northeast  Level Estimated
07:14AM -24.2006 162.8011 39° Northeast  Level Estimated
07:15AM -24.1036 162.8885 39° Northeast  Level Estimated
07:16AM -24.0065 162.9758 39° Northeast  Level Estimated
07:17AM -23.9093 163.0629 39° Northeast  Level Estimated
07:18AM -23.8121 163.1499 39° Northeast  Level Estimated
07:19AM -23.7148 163.2368 39° Northeast  Level Estimated
07:20AM -23.6175 163.3236 39° Northeast  Level Estimated
07:21AM -23.5202 163.4102 39° Northeast  Level Estimated
07:22AM -23.4228 163.4967 39° Northeast  Level Estimated
07:23AM -23.3253 163.5831 39° Northeast  Level Estimated
07:24AM -23.2279 163.6694 39° Northeast  Level Estimated
07:25AM -23.1303 163.7555 39° Northeast  Level Estimated
07:26AM -23.0327 163.8415 39° Northeast  Level Estimated
07:27AM -22.9351 163.9273 39° Northeast  Level Estimated
07:28AM -22.8374 164.0131 39° Northeast  Level Estimated
07:29AM -22.7397 164.0987 39° Northeast  Level Estimated
07:30AM -22.6419 164.1842 39° Northeast  Level Estimated
07:31AM -22.5441 164.2696 39° Northeast  Level Estimated
07:32AM -22.4462 164.3548 39° Northeast  Level Estimated
07:33AM -22.3483 164.4400 39° Northeast  Level Estimated
07:34AM -22.2504 164.5250 39° Northeast  Level Estimated
07:35AM -22.1524 164.6099 39° Northeast  Level Estimated
07:36AM -22.0543 164.6947 39° Northeast  Level Estimated
07:37AM -21.9563 164.7794 39° Northeast  Level Estimated
07:38AM -21.8581 164.8639 39° Northeast  Level Estimated
07:39AM -21.7600 164.9483 39° Northeast  Level Estimated
07:40AM -21.6618 165.0327 39° Northeast  Level Estimated
07:41AM -21.5635 165.1169 39° Northeast  Level Estimated
07:42AM -21.4652 165.2009 39° Northeast  Level Estimated
07:43AM -21.3669 165.2849 38° Northeast  Level Estimated
07:44AM -21.2685 165.3688 38° Northeast  Level Estimated
07:45AM -21.1701 165.4525 38° Northeast  Level Estimated
07:46AM -21.0716 165.5362 38° Northeast  Level Estimated
07:47AM -20.9731 165.6197 38° Northeast  Level Estimated
07:48AM -20.8746 165.7031 38° Northeast  Level Estimated
07:49AM -20.7760 165.7864 38° Northeast  Level Estimated
07:50AM -20.6773 165.8696 38° Northeast  Level Estimated
07:51AM -20.5787 165.9527 38° Northeast  Level Estimated
07:52AM -20.4800 166.0357 38° Northeast  Level Estimated
07:53AM -20.3813 166.1186 38° Northeast  Level Estimated
07:54AM -20.2825 166.2014 38° Northeast  Level Estimated
07:55AM -20.1836 166.2840 38° Northeast  Level Estimated
07:56AM -20.0848 166.3666 38° Northeast  Level Estimated
07:57AM -19.9859 166.4491 38° Northeast  Level Estimated
07:58AM -19.8869 166.5314 38° Northeast  Level Estimated
07:59AM -19.7880 166.6136 38° Northeast  Level Estimated
08:00AM -19.6890 166.6958 38° Northeast  Level Estimated
08:01AM -19.5899 166.7778 38° Northeast  Level Estimated
08:02AM -19.4908 166.8598 38° Northeast  Level Estimated
08:03AM -19.3917 166.9417 38° Northeast  Level Estimated
08:04AM -19.2925 167.0234 38° Northeast  Level Estimated
08:05AM -19.1933 167.1051 38° Northeast  Level Estimated
08:06AM -19.0941 167.1866 38° Northeast  Level Estimated
08:07AM -18.9949 167.2681 38° Northeast  Level Estimated
08:08AM -18.8955 167.3494 38° Northeast  Level Estimated
08:09AM -18.7962 167.4307 38° Northeast  Level Estimated
08:10AM -18.6968 167.5118 38° Northeast  Level Estimated
08:11AM -18.5974 167.5929 38° Northeast  Level Estimated
08:12AM -18.4980 167.6738 38° Northeast  Level Estimated
08:13AM -18.3985 167.7547 38° Northeast  Level Estimated
08:14AM -18.2990 167.8355 38° Northeast  Level Estimated
08:15AM -18.1994 167.9162 38° Northeast  Level Estimated
08:16AM -18.0999 167.9968 38° Northeast  Level Estimated
08:17AM -18.0002 168.0773 38° Northeast  Level Estimated
08:18AM -17.9006 168.1577 38° Northeast  Level Estimated
08:19AM -17.8009 168.2381 38° Northeast  Level Estimated
08:20AM -17.7012 168.3183 37° Northeast  Level Estimated
08:21AM -17.6993 168.3198 38° Northeast  Level Estimated
08:22AM -17.6993 168.3198 143° Southeast  Level Estimated
08:23AM -17.6993 168.3198 37° Northeast  Level Estimated
08:24AM -17.6993 168.3198 143° Southeast  Level Estimated
08:25AM -17.6993 168.3198 37° Northeast  Level Estimated
08:26AM -17.6993 168.3198 143° Southeast  Level Estimated
08:27AM -17.6993 168.3198 37° Northeast  Level Estimated
08:28AM -17.6993 168.3198 143° Southeast  Level Estimated
08:29AM -17.6993 168.3198 37° Northeast  Level Estimated
08:30AM -17.6993 168.3198 143° Southeast  Level Estimated
08:31AM -17.6993 168.3198 37° Northeast  Level Estimated
08:32AM -17.6993 168.3198 143° Southeast  Level Estimated
08:33AM -17.6993 168.3198 37° Northeast  Level Estimated
08:34AM -17.6993 168.3198 143° Southeast  Level Estimated
08:35AM -17.6993 168.3198 37° Northeast  Level Estimated
08:36AM -17.6993 168.3198 143° Southeast  Level Estimated
08:37AM -17.6993 168.3198 37° Northeast  Level Estimated
08:38AM -17.6993 168.3198 143° Southeast  Level Estimated